createdAt,value
2019-01-25T00:01:02.931Z,2.62
2019-01-25T00:02:08.017Z,2.62
2019-01-25T00:03:13.389Z,2.60
2019-01-25T00:04:18.699Z,2.60
2019-01-25T00:05:23.724Z,2.58
2019-01-25T00:06:28.762Z,2.55
2019-01-25T00:07:33.808Z,2.53
2019-01-25T00:08:38.901Z,2.55
2019-01-25T00:09:43.846Z,2.56
2019-01-25T00:10:49.493Z,2.55
2019-01-25T00:11:55.086Z,2.56
2019-01-25T00:13:00.095Z,2.59
2019-01-25T00:14:06.008Z,2.58
2019-01-25T00:15:11.720Z,2.60
2019-01-25T00:16:16.862Z,2.62
2019-01-25T00:17:21.963Z,2.65
2019-01-25T00:18:27.038Z,2.68
2019-01-25T00:19:32.049Z,2.69
2019-01-25T00:20:37.340Z,2.71
2019-01-25T00:21:42.698Z,2.74
2019-01-25T00:22:47.732Z,2.75
2019-01-25T00:23:53.197Z,2.76
2019-01-25T00:24:59.335Z,2.77
2019-01-25T00:26:04.809Z,2.78
2019-01-25T00:27:10.073Z,2.79
2019-01-25T00:28:15.025Z,2.80
2019-01-25T00:29:20.331Z,2.80
2019-01-25T00:30:25.523Z,2.81
2019-01-25T00:31:30.621Z,2.79
2019-01-25T00:32:35.632Z,2.76
2019-01-25T00:33:41.095Z,2.72
2019-01-25T00:34:46.084Z,2.68
2019-01-25T00:35:51.124Z,2.62
2019-01-25T00:36:56.221Z,2.57
2019-01-25T00:38:01.168Z,2.54
2019-01-25T00:39:08.132Z,2.52
2019-01-25T00:40:14.216Z,2.50
2019-01-25T00:41:19.231Z,2.51
2019-01-25T00:42:24.253Z,2.54
2019-01-25T00:43:29.671Z,2.56
2019-01-25T00:44:34.720Z,2.58
2019-01-25T00:45:39.703Z,2.61
2019-01-25T00:46:44.740Z,2.63
2019-01-25T00:47:49.924Z,2.67
2019-01-25T00:48:54.860Z,2.69
2019-01-25T00:50:00.254Z,2.72
2019-01-25T00:51:05.385Z,2.75
2019-01-25T00:52:10.521Z,2.77
2019-01-25T00:53:15.763Z,2.78
2019-01-25T00:54:21.048Z,2.78
2019-01-25T00:55:26.394Z,2.79
2019-01-25T00:56:31.397Z,2.79
2019-01-25T00:57:36.721Z,2.79
2019-01-25T00:58:41.711Z,2.77
2019-01-25T00:59:47.091Z,2.78
2019-01-25T01:00:52.418Z,2.77
2019-01-25T01:01:57.552Z,2.75
2019-01-25T01:03:03.779Z,2.72
2019-01-25T01:04:08.909Z,2.72
2019-01-25T01:05:14.723Z,2.70
2019-01-25T01:06:20.934Z,2.71
2019-01-25T01:07:25.954Z,2.70
2019-01-25T01:08:30.966Z,2.68
2019-01-25T01:09:36.952Z,2.68
2019-01-25T01:10:42.067Z,2.67
2019-01-25T01:11:47.030Z,2.68
2019-01-25T01:12:53.072Z,2.69
2019-01-25T01:13:58.060Z,2.70
2019-01-25T01:15:03.283Z,2.69
2019-01-25T01:16:08.565Z,2.69
2019-01-25T01:17:13.625Z,2.67
2019-01-25T01:18:18.693Z,2.68
2019-01-25T01:19:23.712Z,2.66
2019-01-25T01:20:28.803Z,2.63
2019-01-25T01:21:33.730Z,2.63
2019-01-25T01:22:38.812Z,2.61
2019-01-25T01:23:43.821Z,2.59
2019-01-25T01:24:49.246Z,2.57
2019-01-25T01:25:54.317Z,2.54
2019-01-25T01:26:59.256Z,2.53
2019-01-25T01:28:04.326Z,2.55
2019-01-25T01:29:09.338Z,2.56
2019-01-25T01:30:19.744Z,2.56
2019-01-25T01:31:24.756Z,2.59
2019-01-25T01:32:29.766Z,2.62
2019-01-25T01:33:35.136Z,2.63
2019-01-25T01:34:40.066Z,2.64
2019-01-25T01:35:45.402Z,2.65
2019-01-25T01:36:50.434Z,2.65
2019-01-25T01:37:55.791Z,2.65
2019-01-25T01:39:00.834Z,2.66
2019-01-25T01:40:10.581Z,2.66
2019-01-25T01:41:15.578Z,2.66
2019-01-25T01:42:20.645Z,2.66
2019-01-25T01:43:25.723Z,2.66
2019-01-25T01:44:30.687Z,2.66
2019-01-25T01:45:35.620Z,2.68
2019-01-25T01:46:40.856Z,2.67
2019-01-25T01:47:45.951Z,2.69
2019-01-25T01:48:51.001Z,2.70
2019-01-25T01:49:56.023Z,2.72
2019-01-25T01:51:01.393Z,2.75
2019-01-25T01:52:06.683Z,2.76
2019-01-25T01:53:11.675Z,2.77
2019-01-25T01:54:16.874Z,2.79
2019-01-25T01:55:22.263Z,2.80
2019-01-25T01:56:27.531Z,2.80
2019-01-25T01:57:32.831Z,2.80
2019-01-25T01:58:37.840Z,2.80
2019-01-25T01:59:42.767Z,2.79
2019-01-25T02:00:47.784Z,2.80
2019-01-25T02:01:52.691Z,2.81
2019-01-25T02:02:58.042Z,2.81
2019-01-25T02:04:03.076Z,2.82
2019-01-25T02:05:09.577Z,2.81
2019-01-25T02:06:14.683Z,2.81
2019-01-25T02:07:20.017Z,2.81
2019-01-25T02:08:25.021Z,2.81
2019-01-25T02:09:29.946Z,2.81
2019-01-25T02:10:35.038Z,2.82
2019-01-25T02:11:40.117Z,2.83
2019-01-25T02:12:45.229Z,2.84
2019-01-25T02:13:50.462Z,2.84
2019-01-25T02:14:55.828Z,2.87
2019-01-25T02:16:01.221Z,2.90
2019-01-25T02:17:06.370Z,2.91
2019-01-25T02:18:11.689Z,2.93
2019-01-25T02:19:17.074Z,2.94
2019-01-25T02:20:32.384Z,2.95
2019-01-25T02:21:37.719Z,2.98
2019-01-25T02:22:42.688Z,3.00
2019-01-25T02:23:48.162Z,3.02
2019-01-25T02:24:53.159Z,3.02
2019-01-25T02:25:58.659Z,3.02
2019-01-25T02:27:03.689Z,3.01
2019-01-25T02:28:08.826Z,3.03
2019-01-25T02:29:13.823Z,3.03
2019-01-25T02:30:21.493Z,3.04
2019-01-25T02:31:26.489Z,3.04
2019-01-25T02:32:31.434Z,3.04
2019-01-25T02:33:36.799Z,3.03
2019-01-25T02:34:41.799Z,3.03
2019-01-25T02:35:47.152Z,3.03
2019-01-25T02:36:52.541Z,3.01
2019-01-25T02:37:57.820Z,2.99
2019-01-25T02:39:03.152Z,2.95
2019-01-25T02:40:09.679Z,2.94
2019-01-25T02:41:14.689Z,2.93
2019-01-25T02:42:19.707Z,2.89
2019-01-25T02:43:24.632Z,2.87
2019-01-25T02:44:29.567Z,2.86
2019-01-25T02:45:34.751Z,2.85
2019-01-25T02:46:40.040Z,2.84
2019-01-25T02:47:45.409Z,2.85
2019-01-25T02:48:50.426Z,2.86
2019-01-25T02:49:55.387Z,2.86
2019-01-25T02:51:00.363Z,2.88
2019-01-25T02:52:05.602Z,2.89
2019-01-25T02:53:10.532Z,2.88
2019-01-25T02:54:15.472Z,2.88
2019-01-25T02:55:20.690Z,2.87
2019-01-25T02:56:25.699Z,2.86
2019-01-25T02:57:30.693Z,2.87
2019-01-25T02:58:35.674Z,2.85
2019-01-25T02:59:40.871Z,2.85
2019-01-25T03:00:46.180Z,2.86
2019-01-25T03:01:51.135Z,2.86
2019-01-25T03:02:56.729Z,2.88
2019-01-25T03:04:02.101Z,2.89
2019-01-25T03:05:08.352Z,2.91
2019-01-25T03:06:13.709Z,2.92
2019-01-25T03:07:20.017Z,2.93
2019-01-25T03:08:25.104Z,2.93
2019-01-25T03:09:30.405Z,2.95
2019-01-25T03:10:35.817Z,2.94
2019-01-25T03:11:40.912Z,2.94
2019-01-25T03:12:46.111Z,2.93
2019-01-25T03:13:51.087Z,2.92
2019-01-25T03:14:56.443Z,2.88
2019-01-25T03:16:01.481Z,2.86
2019-01-25T03:17:06.525Z,2.86
2019-01-25T03:18:11.624Z,2.87
2019-01-25T03:19:16.585Z,2.89
2019-01-25T03:20:21.869Z,2.92
2019-01-25T03:21:26.771Z,2.94
2019-01-25T03:22:31.783Z,2.96
2019-01-25T03:23:36.991Z,2.95
2019-01-25T03:24:42.055Z,2.93
2019-01-25T03:25:47.066Z,2.89
2019-01-25T03:26:52.714Z,2.86
2019-01-25T03:27:57.795Z,2.82
2019-01-25T03:29:02.832Z,2.81
2019-01-25T03:30:09.619Z,2.81
2019-01-25T03:31:14.854Z,2.83
2019-01-25T03:32:19.872Z,2.85
2019-01-25T03:33:24.843Z,2.86
2019-01-25T03:34:30.108Z,2.87
2019-01-25T03:35:35.130Z,2.88
2019-01-25T03:36:40.623Z,2.90
2019-01-25T03:37:45.708Z,2.92
2019-01-25T03:38:50.673Z,2.92
2019-01-25T03:39:55.955Z,2.92
2019-01-25T03:41:01.227Z,2.92
2019-01-25T03:42:06.311Z,2.89
2019-01-25T03:43:11.606Z,2.87
2019-01-25T03:44:16.715Z,2.86
2019-01-25T03:45:22.208Z,2.84
2019-01-25T03:46:27.153Z,2.83
2019-01-25T03:47:32.336Z,2.82
2019-01-25T03:48:37.447Z,2.81
2019-01-25T03:49:42.561Z,2.81
2019-01-25T03:50:47.645Z,2.83
2019-01-25T03:51:52.622Z,2.86
2019-01-25T03:52:57.790Z,2.88
2019-01-25T03:54:02.813Z,2.91
2019-01-25T03:55:09.991Z,2.94
2019-01-25T03:56:15.047Z,2.98
2019-01-25T03:57:19.963Z,3.01
2019-01-25T03:58:24.926Z,3.04
2019-01-25T03:59:30.239Z,3.05
2019-01-25T04:00:35.277Z,3.06
2019-01-25T04:01:40.223Z,3.08
2019-01-25T04:02:45.414Z,3.07
2019-01-25T04:03:50.421Z,3.06
2019-01-25T04:04:55.654Z,3.04
2019-01-25T04:06:00.927Z,3.03
2019-01-25T04:07:06.144Z,3.05
2019-01-25T04:08:11.696Z,3.08
2019-01-25T04:09:16.787Z,3.08
2019-01-25T04:10:23.516Z,3.10
2019-01-25T04:11:28.522Z,3.11
2019-01-25T04:12:33.606Z,3.12
2019-01-25T04:13:38.620Z,3.14
2019-01-25T04:14:43.679Z,3.16
2019-01-25T04:15:48.695Z,3.19
2019-01-25T04:16:53.699Z,3.21
2019-01-25T04:17:58.762Z,3.22
2019-01-25T04:19:03.856Z,3.22
2019-01-25T04:20:11.058Z,3.23
2019-01-25T04:21:16.075Z,3.25
2019-01-25T04:22:21.162Z,3.25
2019-01-25T04:23:26.556Z,3.27
2019-01-25T04:24:31.482Z,3.28
2019-01-25T04:25:36.848Z,3.29
2019-01-25T04:26:42.115Z,3.27
2019-01-25T04:27:47.406Z,3.26
2019-01-25T04:28:52.347Z,3.24
2019-01-25T04:29:57.339Z,3.22
2019-01-25T04:31:02.403Z,3.19
2019-01-25T04:32:07.399Z,3.17
2019-01-25T04:33:12.422Z,3.14
2019-01-25T04:34:17.646Z,3.14
2019-01-25T04:35:22.610Z,3.14
2019-01-25T04:36:27.677Z,3.17
2019-01-25T04:37:33.292Z,3.18
2019-01-25T04:38:38.856Z,3.19
2019-01-25T04:39:44.156Z,3.19
2019-01-25T04:40:49.335Z,3.21
2019-01-25T04:41:54.272Z,3.24
2019-01-25T04:42:59.356Z,3.25
2019-01-25T04:44:04.679Z,3.25
2019-01-25T04:45:11.496Z,3.27
2019-01-25T04:46:16.651Z,3.26
2019-01-25T04:47:28.021Z,3.26
2019-01-25T04:48:33.036Z,3.26
2019-01-25T04:49:38.718Z,3.26
2019-01-25T04:50:43.813Z,3.27
2019-01-25T04:51:48.876Z,3.27
2019-01-25T04:52:55.429Z,3.26
2019-01-25T04:54:00.473Z,3.26
2019-01-25T04:55:14.761Z,3.27
2019-01-25T04:56:19.753Z,3.27
2019-01-25T04:57:25.093Z,3.28
2019-01-25T04:58:30.381Z,3.30
2019-01-25T04:59:35.626Z,3.32
2019-01-25T05:00:40.841Z,3.33
2019-01-25T05:01:45.947Z,3.33
2019-01-25T05:02:55.745Z,3.33
2019-01-25T05:04:00.775Z,3.33
2019-01-25T05:05:06.507Z,3.35
2019-01-25T05:06:14.566Z,3.37
2019-01-25T05:07:19.504Z,3.39
2019-01-25T05:08:24.553Z,3.40
2019-01-25T05:09:34.230Z,3.41
2019-01-25T05:10:39.755Z,3.41
2019-01-25T05:11:45.784Z,3.42
2019-01-25T05:12:54.164Z,3.41
2019-01-25T05:13:59.379Z,3.40
2019-01-25T05:15:05.249Z,3.42
2019-01-25T05:16:14.775Z,3.42
2019-01-25T05:17:20.040Z,3.42
2019-01-25T05:18:24.985Z,3.43
2019-01-25T05:19:32.725Z,3.45
2019-01-25T05:20:37.733Z,3.46
2019-01-25T05:21:43.118Z,3.44
2019-01-25T05:22:54.098Z,3.43
2019-01-25T05:23:59.026Z,3.43
2019-01-25T05:25:04.340Z,3.41
2019-01-25T05:26:09.591Z,3.38
2019-01-25T05:27:14.872Z,3.35
2019-01-25T05:28:21.005Z,3.33
2019-01-25T05:29:32.424Z,3.31
2019-01-25T05:30:37.442Z,3.28
2019-01-25T05:31:42.779Z,3.26
2019-01-25T05:32:47.804Z,3.23
2019-01-25T05:33:54.773Z,3.22
2019-01-25T05:34:59.722Z,3.18
2019-01-25T05:36:05.844Z,3.15
2019-01-25T05:37:12.339Z,3.12
2019-01-25T05:38:17.278Z,3.11
2019-01-25T05:39:22.208Z,3.09
2019-01-25T05:40:27.187Z,3.08
2019-01-25T05:41:32.222Z,3.07
2019-01-25T05:42:37.145Z,3.06
2019-01-25T05:43:43.299Z,3.05
2019-01-25T05:44:48.737Z,3.06
2019-01-25T05:45:53.761Z,3.06
2019-01-25T05:46:58.860Z,3.07
2019-01-25T05:48:04.109Z,3.09
2019-01-25T05:49:09.091Z,3.10
2019-01-25T05:50:14.637Z,3.09
2019-01-25T05:51:19.636Z,3.09
2019-01-25T05:52:24.754Z,3.10
2019-01-25T05:53:30.194Z,3.08
2019-01-25T05:54:35.235Z,3.07
2019-01-25T05:55:40.251Z,3.06
2019-01-25T05:56:45.324Z,3.04
2019-01-25T05:57:52.376Z,3.02
2019-01-25T05:58:57.470Z,3.02
2019-01-25T06:00:05.860Z,3.00
2019-01-25T06:01:10.981Z,2.97
2019-01-25T06:02:16.120Z,2.94
2019-01-25T06:03:21.534Z,2.92
2019-01-25T06:04:33.092Z,2.90
2019-01-25T06:05:38.688Z,2.89
2019-01-25T06:06:43.730Z,2.90
2019-01-25T06:07:49.095Z,2.90
2019-01-25T06:08:54.056Z,2.92
2019-01-25T06:09:59.006Z,2.94
2019-01-25T06:11:11.305Z,2.95
2019-01-25T06:12:16.419Z,2.95
2019-01-25T06:13:21.427Z,2.95
2019-01-25T06:14:27.785Z,2.96
2019-01-25T06:15:32.809Z,2.96
2019-01-25T06:16:41.346Z,2.98
2019-01-25T06:17:46.715Z,2.99
2019-01-25T06:18:51.758Z,2.99
2019-01-25T06:19:57.224Z,3.00
2019-01-25T06:21:02.453Z,2.99
2019-01-25T06:22:07.459Z,3.00
2019-01-25T06:23:12.541Z,2.99
2019-01-25T06:24:18.150Z,2.98
2019-01-25T06:25:23.234Z,2.99
2019-01-25T06:26:28.649Z,2.99
2019-01-25T06:27:37.666Z,3.00
2019-01-25T06:28:42.782Z,3.00
2019-01-25T06:29:48.030Z,3.01
2019-01-25T06:30:53.338Z,3.03
2019-01-25T06:31:58.329Z,3.04
2019-01-25T06:33:03.281Z,3.04
2019-01-25T06:34:08.657Z,3.03
2019-01-25T06:35:13.671Z,3.03
2019-01-25T06:36:19.133Z,3.01
2019-01-25T06:37:24.128Z,2.99
2019-01-25T06:38:29.268Z,3.01
2019-01-25T06:39:34.352Z,3.02
2019-01-25T06:40:39.538Z,3.05
2019-01-25T06:41:44.618Z,3.05
2019-01-25T06:42:49.765Z,3.07
2019-01-25T06:43:54.707Z,3.08
2019-01-25T06:44:59.640Z,3.12
2019-01-25T06:46:05.342Z,3.13
2019-01-25T06:47:10.367Z,3.15
2019-01-25T06:48:15.486Z,3.18
2019-01-25T06:49:20.592Z,3.17
2019-01-25T06:50:25.566Z,3.17
2019-01-25T06:51:30.936Z,3.18
2019-01-25T06:52:35.971Z,3.18
2019-01-25T06:53:41.977Z,3.18
2019-01-25T06:54:46.904Z,3.20
2019-01-25T06:55:51.989Z,3.20
2019-01-25T06:56:58.379Z,3.22
2019-01-25T06:58:10.751Z,3.24
2019-01-25T06:59:22.173Z,3.24
2019-01-25T07:00:28.119Z,3.26
2019-01-25T07:01:50.949Z,3.23
2019-01-25T07:02:57.739Z,3.22
2019-01-25T07:04:02.768Z,3.20
2019-01-25T07:05:09.121Z,3.19
2019-01-25T07:06:15.933Z,3.17
2019-01-25T07:07:25.992Z,3.15
2019-01-25T07:08:31.353Z,3.14
2019-01-25T07:09:36.761Z,3.15
2019-01-25T07:10:41.790Z,3.15
2019-01-25T07:11:51.491Z,3.17
2019-01-25T07:12:53.644Z,3.18
2019-01-25T07:13:59.745Z,3.18
2019-01-25T07:15:06.240Z,3.17
2019-01-25T07:16:11.980Z,3.18
2019-01-25T07:17:19.827Z,3.18
2019-01-25T07:18:24.768Z,3.19
2019-01-25T07:19:29.747Z,3.21
2019-01-25T07:20:34.864Z,3.21
2019-01-25T07:21:40.231Z,3.20
2019-01-25T07:22:45.359Z,3.21
2019-01-25T07:23:50.418Z,3.23
2019-01-25T07:24:57.257Z,3.22
2019-01-25T07:26:02.223Z,3.24
2019-01-25T07:27:07.245Z,3.26
2019-01-25T07:28:13.016Z,3.28
2019-01-25T07:29:20.023Z,3.29
2019-01-25T07:30:25.137Z,3.29
2019-01-25T07:31:30.328Z,3.30
2019-01-25T07:32:35.373Z,3.31
2019-01-25T07:33:41.028Z,3.32
2019-01-25T07:34:46.479Z,3.31
2019-01-25T07:35:51.516Z,3.31
2019-01-25T07:36:56.485Z,3.28
2019-01-25T07:38:01.816Z,3.28
2019-01-25T07:39:25.042Z,3.28
2019-01-25T07:40:30.973Z,3.27
2019-01-25T07:41:36.107Z,3.29
2019-01-25T07:42:41.209Z,3.30
2019-01-25T07:43:46.466Z,3.28
2019-01-25T07:44:51.685Z,3.25
2019-01-25T07:45:57.403Z,3.23
2019-01-25T07:47:02.531Z,3.23
2019-01-25T07:48:07.623Z,3.23
2019-01-25T07:49:12.775Z,3.24
2019-01-25T07:50:18.192Z,3.24
2019-01-25T07:51:23.292Z,3.25
2019-01-25T07:52:28.422Z,3.26
2019-01-25T07:53:33.507Z,3.24
2019-01-25T07:54:38.561Z,3.25
2019-01-25T07:55:43.751Z,3.22
2019-01-25T07:56:48.700Z,3.20
2019-01-25T07:57:54.421Z,3.20
2019-01-25T07:58:59.372Z,3.21
2019-01-25T08:00:05.336Z,3.21
2019-01-25T08:01:10.515Z,3.20
2019-01-25T08:02:15.588Z,3.20
2019-01-25T08:03:20.597Z,3.18
2019-01-25T08:04:25.797Z,3.18
2019-01-25T08:05:31.283Z,3.20
2019-01-25T08:06:36.521Z,3.21
2019-01-25T08:07:41.547Z,3.20
2019-01-25T08:08:46.897Z,3.20
2019-01-25T08:09:52.151Z,3.22
2019-01-25T08:10:57.468Z,3.24
2019-01-25T08:12:07.343Z,3.27
2019-01-25T08:13:09.314Z,3.29
2019-01-25T08:14:14.810Z,3.31
2019-01-25T08:15:20.380Z,3.31
2019-01-25T08:16:26.881Z,3.30
2019-01-25T08:17:31.921Z,3.32
2019-01-25T08:18:36.982Z,3.33
2019-01-25T08:19:43.267Z,3.36
2019-01-25T08:20:48.978Z,3.37
2019-01-25T08:21:54.013Z,3.39
2019-01-25T08:22:59.021Z,3.42
2019-01-25T08:24:04.166Z,3.43
2019-01-25T08:25:09.849Z,3.44
2019-01-25T08:26:15.629Z,3.43
2019-01-25T08:27:20.959Z,3.45
2019-01-25T08:28:26.169Z,3.46
2019-01-25T08:29:31.221Z,3.46
2019-01-25T08:30:36.788Z,3.46
2019-01-25T08:31:42.216Z,3.49
2019-01-25T08:32:48.268Z,3.50
2019-01-25T08:33:53.442Z,3.47
2019-01-25T08:34:58.515Z,3.48
2019-01-25T08:36:03.713Z,3.47
2019-01-25T08:37:08.700Z,3.47
2019-01-25T08:38:14.017Z,3.49
2019-01-25T08:39:19.070Z,3.49
2019-01-25T08:40:24.388Z,3.51
2019-01-25T08:41:29.937Z,3.53
2019-01-25T08:42:35.122Z,3.56
2019-01-25T08:43:40.480Z,3.58
2019-01-25T08:44:46.172Z,3.58
2019-01-25T08:45:51.361Z,3.60
2019-01-25T08:46:56.430Z,3.62
2019-01-25T08:48:01.527Z,3.63
2019-01-25T08:49:06.732Z,3.65
2019-01-25T08:50:17.258Z,3.66
2019-01-25T08:51:22.372Z,3.68
2019-01-25T08:52:27.774Z,3.69
2019-01-25T08:53:32.742Z,3.70
2019-01-25T08:54:38.106Z,3.71
2019-01-25T08:55:43.205Z,3.72
2019-01-25T08:56:48.315Z,3.75
2019-01-25T08:57:53.340Z,3.74
2019-01-25T08:58:58.933Z,3.75
2019-01-25T09:00:05.602Z,3.76
2019-01-25T09:01:10.928Z,3.78
2019-01-25T09:02:16.312Z,3.80
2019-01-25T09:03:21.742Z,3.82
2019-01-25T09:04:26.719Z,3.83
2019-01-25T09:05:31.854Z,3.82
2019-01-25T09:06:36.964Z,3.82
2019-01-25T09:07:42.073Z,3.84
2019-01-25T09:08:47.425Z,3.85
2019-01-25T09:09:52.421Z,3.88
2019-01-25T09:10:57.930Z,3.90
2019-01-25T09:12:03.188Z,3.91
2019-01-25T09:13:08.399Z,3.93
2019-01-25T09:14:13.765Z,3.95
2019-01-25T09:15:22.566Z,3.99
2019-01-25T09:16:28.120Z,4.01
2019-01-25T09:17:33.287Z,4.01
2019-01-25T09:18:38.573Z,4.02
2019-01-25T09:19:43.638Z,4.03
2019-01-25T09:20:50.321Z,4.02
2019-01-25T09:21:56.471Z,4.04
2019-01-25T09:23:01.609Z,4.05
2019-01-25T09:24:06.741Z,4.06
2019-01-25T09:25:11.857Z,4.05
2019-01-25T09:26:17.254Z,4.06
2019-01-25T09:27:23.845Z,4.03
2019-01-25T09:28:29.285Z,4.03
2019-01-25T09:29:34.268Z,4.04
2019-01-25T09:30:39.401Z,4.06
2019-01-25T09:31:44.351Z,4.06
2019-01-25T09:32:49.433Z,4.07
2019-01-25T09:33:54.780Z,4.04
2019-01-25T09:35:00.249Z,4.03
2019-01-25T09:36:05.581Z,4.00
2019-01-25T09:37:10.599Z,3.98
2019-01-25T09:38:15.785Z,3.99
2019-01-25T09:39:20.836Z,4.01
2019-01-25T09:40:26.853Z,4.02
2019-01-25T09:41:31.847Z,4.04
2019-01-25T09:42:37.168Z,4.07
2019-01-25T09:43:42.181Z,4.09
2019-01-25T09:44:47.396Z,4.11
2019-01-25T09:45:52.770Z,4.12
2019-01-25T09:46:57.796Z,4.14
2019-01-25T09:48:02.721Z,4.14
2019-01-25T09:49:07.811Z,4.17
2019-01-25T09:50:15.224Z,4.19
2019-01-25T09:51:20.267Z,4.18
2019-01-25T09:52:25.377Z,4.18
2019-01-25T09:53:30.461Z,4.15
2019-01-25T09:54:35.424Z,4.13
2019-01-25T09:55:40.551Z,4.12
2019-01-25T09:56:45.537Z,4.12
2019-01-25T09:57:51.737Z,4.13
2019-01-25T09:58:57.769Z,4.14
2019-01-25T10:00:02.936Z,4.15
2019-01-25T10:01:10.094Z,4.18
2019-01-25T10:02:15.419Z,4.21
2019-01-25T10:03:21.056Z,4.24
2019-01-25T10:04:25.991Z,4.27
2019-01-25T10:05:31.101Z,4.28
2019-01-25T10:06:36.685Z,4.29
2019-01-25T10:07:41.775Z,4.29
2019-01-25T10:08:47.231Z,4.30
2019-01-25T10:09:52.166Z,4.31
2019-01-25T10:10:57.410Z,4.32
2019-01-25T10:12:02.368Z,4.34
2019-01-25T10:13:07.400Z,4.37
2019-01-25T10:14:12.433Z,4.38
2019-01-25T10:15:19.684Z,4.41
2019-01-25T10:16:24.605Z,4.43
2019-01-25T10:17:29.965Z,4.46
2019-01-25T10:18:35.099Z,4.47
2019-01-25T10:19:40.473Z,4.48
2019-01-25T10:20:45.558Z,4.49
2019-01-25T10:21:50.619Z,4.50
2019-01-25T10:22:55.996Z,4.50
2019-01-25T10:24:01.849Z,4.51
2019-01-25T10:25:08.176Z,4.53
2019-01-25T10:26:13.257Z,4.53
2019-01-25T10:27:18.233Z,4.56
2019-01-25T10:28:23.892Z,4.57
2019-01-25T10:29:29.225Z,4.59
2019-01-25T10:30:34.568Z,4.63
2019-01-25T10:31:39.985Z,4.65
2019-01-25T10:32:45.344Z,4.66
2019-01-25T10:33:50.444Z,4.68
2019-01-25T10:34:55.558Z,4.69
2019-01-25T10:36:00.678Z,4.68
2019-01-25T10:37:06.029Z,4.70
2019-01-25T10:38:11.129Z,4.72
2019-01-25T10:39:16.722Z,4.74
2019-01-25T10:40:22.119Z,4.74
2019-01-25T10:41:27.073Z,4.72
2019-01-25T10:42:32.083Z,4.72
2019-01-25T10:43:37.388Z,4.73
2019-01-25T10:44:42.610Z,4.76
2019-01-25T10:45:47.600Z,4.76
2019-01-25T10:46:53.037Z,4.73
2019-01-25T10:47:58.269Z,4.74
2019-01-25T10:49:03.428Z,4.74
2019-01-25T10:50:08.579Z,4.73
2019-01-25T10:51:13.597Z,4.71
2019-01-25T10:52:18.570Z,4.70
2019-01-25T10:53:23.594Z,4.69
2019-01-25T10:54:29.028Z,4.69
2019-01-25T10:55:34.554Z,4.70
2019-01-25T10:56:41.917Z,4.73
2019-01-25T10:57:47.146Z,4.76
2019-01-25T10:58:52.082Z,4.79
2019-01-25T10:59:57.435Z,4.83
2019-01-25T11:01:02.751Z,4.85
2019-01-25T11:02:07.799Z,4.87
2019-01-25T11:03:12.789Z,4.88
2019-01-25T11:04:17.822Z,4.88
2019-01-25T11:05:24.205Z,4.85
2019-01-25T11:06:29.459Z,4.84
2019-01-25T11:07:34.836Z,4.80
2019-01-25T11:08:39.771Z,4.78
2019-01-25T11:09:45.024Z,4.81
2019-01-25T11:10:50.067Z,4.84
2019-01-25T11:11:55.077Z,4.86
2019-01-25T11:13:01.133Z,4.87
2019-01-25T11:14:06.623Z,4.89
2019-01-25T11:15:14.666Z,4.88
2019-01-25T11:16:20.003Z,4.85
2019-01-25T11:17:25.337Z,4.86
2019-01-25T11:18:30.363Z,4.86
2019-01-25T11:19:35.401Z,4.87
2019-01-25T11:20:40.433Z,4.87
2019-01-25T11:21:45.590Z,4.87
2019-01-25T11:22:51.179Z,4.86
2019-01-25T11:23:56.261Z,4.84
2019-01-25T11:25:01.272Z,4.82
2019-01-25T11:26:07.255Z,4.81
2019-01-25T11:27:12.328Z,4.78
2019-01-25T11:28:17.361Z,4.77
2019-01-25T11:29:22.322Z,4.74
2019-01-25T11:30:27.391Z,4.73
2019-01-25T11:31:32.741Z,4.71
2019-01-25T11:32:37.665Z,4.69
2019-01-25T11:33:42.799Z,4.70
2019-01-25T11:34:48.112Z,4.74
2019-01-25T11:35:53.068Z,4.80
2019-01-25T11:36:58.363Z,4.83
2019-01-25T11:38:03.960Z,4.87
2019-01-25T11:39:10.868Z,4.90
2019-01-25T11:40:19.462Z,4.94
2019-01-25T11:41:24.447Z,4.97
2019-01-25T11:42:29.459Z,5.01
2019-01-25T11:43:34.476Z,5.05
2019-01-25T11:44:39.488Z,5.13
2019-01-25T11:45:44.984Z,5.18
2019-01-25T11:46:49.928Z,5.22
2019-01-25T11:47:54.984Z,5.24
2019-01-25T11:49:00.025Z,5.23
2019-01-25T11:50:21.985Z,5.22
2019-01-25T11:51:16.865Z,5.18
2019-01-25T11:52:25.075Z,5.17
2019-01-25T11:53:29.055Z,5.15
2019-01-25T11:54:33.982Z,5.12
2019-01-25T11:55:39.177Z,5.12
2019-01-25T11:56:44.752Z,5.10
2019-01-25T11:57:49.731Z,5.11
2019-01-25T11:58:55.715Z,5.14
2019-01-25T12:00:00.660Z,5.16
2019-01-25T12:01:06.802Z,5.20
2019-01-25T12:02:11.946Z,5.20
2019-01-25T12:03:17.236Z,5.20
2019-01-25T12:04:22.589Z,5.21
2019-01-25T12:05:27.966Z,5.23
2019-01-25T12:06:33.236Z,5.25
2019-01-25T12:07:39.685Z,5.29
2019-01-25T12:08:44.686Z,5.30
2019-01-25T12:09:49.626Z,5.33
2019-01-25T12:10:54.867Z,5.34
2019-01-25T12:11:59.844Z,5.37
2019-01-25T12:13:05.149Z,5.42
2019-01-25T12:14:10.170Z,5.44
2019-01-25T12:15:16.460Z,5.46
2019-01-25T12:16:21.880Z,5.49
2019-01-25T12:17:27.130Z,5.53
2019-01-25T12:18:32.826Z,5.60
2019-01-25T12:19:38.193Z,5.69
2019-01-25T12:20:43.706Z,5.76
2019-01-25T12:21:49.705Z,5.83
2019-01-25T12:22:55.144Z,5.89
2019-01-25T12:24:00.453Z,5.88
2019-01-25T12:25:06.209Z,5.89
2019-01-25T12:26:11.421Z,5.90
2019-01-25T12:27:16.675Z,5.88
2019-01-25T12:28:22.726Z,5.86
2019-01-25T12:29:28.013Z,5.86
2019-01-25T12:30:37.677Z,5.83
2019-01-25T12:31:44.170Z,5.80
2019-01-25T12:32:49.973Z,5.78
2019-01-25T12:33:56.623Z,5.76
2019-01-25T12:35:07.228Z,5.73
2019-01-25T12:36:08.739Z,5.71
2019-01-25T12:37:14.038Z,5.70
2019-01-25T12:38:19.438Z,5.70
2019-01-25T12:39:24.731Z,5.69
2019-01-25T12:40:30.018Z,5.67
2019-01-25T12:41:34.996Z,5.68
2019-01-25T12:42:40.180Z,5.69
2019-01-25T12:43:45.219Z,5.70
2019-01-25T12:44:50.687Z,5.73
2019-01-25T12:45:55.739Z,5.75
2019-01-25T12:47:01.036Z,5.77
2019-01-25T12:48:06.439Z,5.78
2019-01-25T12:49:11.633Z,5.78
2019-01-25T12:50:22.689Z,5.76
2019-01-25T12:51:39.921Z,5.77
2019-01-25T12:52:45.130Z,5.77
2019-01-25T12:53:50.288Z,5.77
2019-01-25T12:54:55.489Z,5.76
2019-01-25T12:56:00.920Z,5.75
2019-01-25T12:57:06.336Z,5.73
2019-01-25T12:58:11.423Z,5.73
2019-01-25T12:59:16.454Z,5.71
2019-01-25T13:00:23.539Z,5.68
2019-01-25T13:01:34.863Z,5.66
2019-01-25T13:02:37.058Z,5.66
2019-01-25T13:03:42.050Z,5.67
2019-01-25T13:04:47.155Z,5.66
2019-01-25T13:05:53.434Z,5.68
2019-01-25T13:06:58.410Z,5.70
2019-01-25T13:08:04.143Z,5.70
2019-01-25T13:09:10.925Z,5.71
2019-01-25T13:10:17.033Z,5.73
2019-01-25T13:11:22.367Z,5.77
2019-01-25T13:12:27.315Z,5.77
2019-01-25T13:13:32.748Z,5.78
2019-01-25T13:14:38.776Z,5.81
2019-01-25T13:15:44.435Z,5.82
2019-01-25T13:16:51.153Z,5.83
2019-01-25T13:17:57.243Z,5.85
2019-01-25T13:19:02.194Z,5.86
2019-01-25T13:20:13.806Z,5.89
2019-01-25T13:21:18.803Z,5.91
2019-01-25T13:22:24.029Z,5.95
2019-01-25T13:23:28.977Z,5.98
2019-01-25T13:24:34.453Z,6.03
2019-01-25T13:25:39.701Z,6.06
2019-01-25T13:26:45.010Z,6.07
2019-01-25T13:27:50.615Z,6.10
2019-01-25T13:28:56.016Z,6.08
2019-01-25T13:30:01.030Z,6.07
2019-01-25T13:31:07.202Z,6.04
2019-01-25T13:32:14.503Z,6.02
2019-01-25T13:33:19.839Z,6.00
2019-01-25T13:34:25.626Z,5.98
2019-01-25T13:35:30.964Z,5.98
2019-01-25T13:36:36.617Z,5.95
2019-01-25T13:37:41.845Z,6.00
2019-01-25T13:38:46.849Z,6.02
2019-01-25T13:39:52.133Z,6.04
2019-01-25T13:40:57.590Z,6.03
2019-01-25T13:42:02.969Z,6.06
2019-01-25T13:43:08.406Z,6.08
2019-01-25T13:44:13.354Z,6.08
2019-01-25T13:45:19.175Z,6.08
2019-01-25T13:46:24.381Z,6.07
2019-01-25T13:47:30.087Z,6.07
2019-01-25T13:48:35.381Z,6.11
2019-01-25T13:49:40.442Z,6.13
2019-01-25T13:50:45.780Z,6.14
2019-01-25T13:51:50.908Z,6.15
2019-01-25T13:52:56.403Z,6.15
2019-01-25T13:54:02.135Z,6.14
2019-01-25T13:55:09.213Z,6.13
2019-01-25T13:56:14.850Z,6.12
2019-01-25T13:57:19.916Z,6.10
2019-01-25T13:58:25.089Z,6.07
2019-01-25T13:59:30.355Z,6.09
2019-01-25T14:00:35.776Z,6.08
2019-01-25T14:01:41.574Z,6.07
2019-01-25T14:02:46.786Z,6.08
2019-01-25T14:03:52.404Z,6.09
2019-01-25T14:04:59.738Z,6.10
2019-01-25T14:06:05.640Z,6.12
2019-01-25T14:07:10.765Z,6.16
2019-01-25T14:08:15.935Z,6.18
2019-01-25T14:09:20.989Z,6.20
2019-01-25T14:10:31.353Z,6.21
2019-01-25T14:11:36.492Z,6.23
2019-01-25T14:12:41.615Z,6.25
2019-01-25T14:13:49.539Z,6.25
2019-01-25T14:14:54.843Z,6.26
2019-01-25T14:16:00.689Z,6.24
2019-01-25T14:17:57.191Z,6.25
2019-01-25T14:19:02.577Z,6.25
2019-01-25T14:20:11.080Z,6.24
2019-01-25T14:21:16.182Z,6.22
2019-01-25T14:22:21.317Z,6.22
2019-01-25T14:23:26.766Z,6.22
2019-01-25T14:26:01.266Z,6.24
2019-01-25T14:29:09.834Z,6.22
2019-01-25T14:30:56.380Z,6.18
2019-01-25T14:32:01.694Z,6.16
2019-01-25T14:33:18.481Z,6.12
2019-01-25T14:36:07.001Z,6.10
2019-01-25T14:37:12.111Z,6.09
2019-01-25T14:38:17.994Z,6.10
2019-01-25T14:39:22.944Z,6.10
2019-01-25T14:40:28.834Z,6.09